sensor_id;sensor_type;location;lat;lon;timestamp;pressure;altitude;pressure_sealevel;temperature;humidity
64095;BME280;50353;51.420;5.682;2023-09-30T00:00:42;102222.66;;;11.47;100.00
64095;BME280;50353;51.420;5.682;2023-09-30T00:03:08;102218.56;;;11.61;100.00
64095;BME280;50353;51.420;5.682;2023-09-30T00:05:33;102222.88;;;11.63;100.00
64095;BME280;50353;51.420;5.682;2023-09-30T00:07:58;102229.56;;;11.72;100.00
64095;BME280;50353;51.420;5.682;2023-09-30T00:10:23;102247.03;;;11.56;100.00
64095;BME280;50353;51.420;5.682;2023-09-30T00:12:49;102244.47;;;11.32;100.00
64095;BME280;50353;51.420;5.682;2023-09-30T00:15:14;102240.00;;;11.55;100.00
64095;BME280;50353;51.420;5.682;2023-09-30T00:17:39;102236.66;;;11.51;100.00
64095;BME280;50353;51.420;5.682;2023-09-30T00:20:05;102235.91;;;11.68;100.00
64095;BME280;50353;51.420;5.682;2023-09-30T00:22:30;102238.03;;;11.60;100.00
64095;BME280;50353;51.420;5.682;2023-09-30T00:24:56;102239.28;;;11.51;100.00
64095;BME280;50353;51.420;5.682;2023-09-30T00:27:21;102236.88;;;11.67;100.00
64095;BME280;50353;51.420;5.682;2023-09-30T00:29:47;102243.09;;;11.66;100.00
64095;BME280;50353;51.420;5.682;2023-09-30T00:32:12;102242.56;;;11.78;100.00
64095;BME280;50353;51.420;5.682;2023-09-30T00:34:37;102237.88;;;11.85;100.00
64095;BME280;50353;51.420;5.682;2023-09-30T00:37:03;102234.16;;;11.89;100.00
64095;BME280;50353;51.420;5.682;2023-09-30T00:39:28;102238.47;;;11.92;100.00
64095;BME280;50353;51.420;5.682;2023-09-30T00:41:57;102235.88;;;11.90;100.00
64095;BME280;50353;51.420;5.682;2023-09-30T00:44:26;102230.75;;;11.86;100.00
64095;BME280;50353;51.420;5.682;2023-09-30T00:46:52;102239.38;;;11.70;100.00
64095;BME280;50353;51.420;5.682;2023-09-30T00:49:19;102254.00;;;11.79;100.00
64095;BME280;50353;51.420;5.682;2023-09-30T00:51:46;102267.28;;;11.99;100.00
64095;BME280;50353;51.420;5.682;2023-09-30T00:54:12;102256.94;;;11.93;100.00
64095;BME280;50353;51.420;5.682;2023-09-30T00:56:43;102249.00;;;11.93;100.00
64095;BME280;50353;51.420;5.682;2023-09-30T00:59:10;102251.03;;;11.87;100.00
64095;BME280;50353;51.420;5.682;2023-09-30T01:01:36;102246.41;;;11.71;100.00
64095;BME280;50353;51.420;5.682;2023-09-30T01:04:02;102244.84;;;11.86;100.00
64095;BME280;50353;51.420;5.682;2023-09-30T01:06:27;102248.56;;;11.82;100.00
64095;BME280;50353;51.420;5.682;2023-09-30T01:08:52;102250.38;;;11.81;100.00
64095;BME280;50353;51.420;5.682;2023-09-30T01:11:18;102261.50;;;11.69;100.00
64095;BME280;50353;51.420;5.682;2023-09-30T01:13:44;102268.25;;;11.76;100.00
64095;BME280;50353;51.420;5.682;2023-09-30T01:16:10;102259.03;;;11.64;100.00
64095;BME280;50353;51.420;5.682;2023-09-30T01:18:36;102260.09;;;11.60;100.00
64095;BME280;50353;51.420;5.682;2023-09-30T01:21:06;102265.44;;;11.59;100.00
64095;BME280;50353;51.420;5.682;2023-09-30T01:23:32;102271.47;;;11.62;100.00
64095;BME280;50353;51.420;5.682;2023-09-30T01:26:04;102273.34;;;11.60;100.00
64095;BME280;50353;51.420;5.682;2023-09-30T01:28:30;102267.00;;;11.64;100.00
64095;BME280;50353;51.420;5.682;2023-09-30T01:30:56;102283.97;;;11.59;100.00
64095;BME280;50353;51.420;5.682;2023-09-30T01:33:22;102281.03;;;11.44;100.00
64095;BME280;50353;51.420;5.682;2023-09-30T01:35:48;102292.81;;;11.37;100.00
64095;BME280;50353;51.420;5.682;2023-09-30T01:38:13;102300.06;;;11.32;100.00
64095;BME280;50353;51.420;5.682;2023-09-30T01:40:39;102286.34;;;11.22;100.00
64095;BME280;50353;51.420;5.682;2023-09-30T01:43:04;102293.91;;;11.09;100.00
64095;BME280;50353;51.420;5.682;2023-09-30T01:45:29;102292.25;;;11.29;100.00
64095;BME280;50353;51.420;5.682;2023-09-30T01:47:55;102292.69;;;11.18;100.00
64095;BME280;50353;51.420;5.682;2023-09-30T01:50:20;102288.13;;;11.22;100.00
64095;BME280;50353;51.420;5.682;2023-09-30T01:52:45;102282.41;;;11.10;100.00
64095;BME280;50353;51.420;5.682;2023-09-30T01:55:11;102273.47;;;11.13;100.00
64095;BME280;50353;51.420;5.682;2023-09-30T01:57:36;102277.72;;;11.17;100.00
64095;BME280;50353;51.420;5.682;2023-09-30T02:00:01;102270.34;;;11.03;100.00
64095;BME280;50353;51.420;5.682;2023-09-30T02:02:26;102266.59;;;11.09;100.00
64095;BME280;50353;51.420;5.682;2023-09-30T02:04:52;102266.44;;;10.90;100.00
64095;BME280;50353;51.420;5.682;2023-09-30T02:07:18;102273.47;;;10.91;100.00
64095;BME280;50353;51.420;5.682;2023-09-30T02:09:44;102277.25;;;10.83;100.00
64095;BME280;50353;51.420;5.682;2023-09-30T02:12:09;102280.09;;;11.01;100.00
64095;BME280;50353;51.420;5.682;2023-09-30T02:14:34;102280.91;;;11.03;100.00
64095;BME280;50353;51.420;5.682;2023-09-30T02:16:59;102282.00;;;10.97;100.00
64095;BME280;50353;51.420;5.682;2023-09-30T02:19:25;102281.34;;;10.92;100.00
64095;BME280;50353;51.420;5.682;2023-09-30T02:21:52;102283.28;;;10.87;100.00
64095;BME280;50353;51.420;5.682;2023-09-30T02:24:17;102288.47;;;11.12;100.00
64095;BME280;50353;51.420;5.682;2023-09-30T02:26:42;102300.56;;;10.96;100.00
64095;BME280;50353;51.420;5.682;2023-09-30T02:29:08;102289.50;;;10.86;100.00
64095;BME280;50353;51.420;5.682;2023-09-30T02:31:34;102299.91;;;10.91;100.00
64095;BME280;50353;51.420;5.682;2023-09-30T02:33:59;102302.75;;;11.08;100.00
64095;BME280;50353;51.420;5.682;2023-09-30T02:36:24;102302.44;;;10.94;100.00
64095;BME280;50353;51.420;5.682;2023-09-30T02:38:50;102282.41;;;11.10;100.00
64095;BME280;50353;51.420;5.682;2023-09-30T02:41:15;102291.38;;;11.06;100.00
64095;BME280;50353;51.420;5.682;2023-09-30T02:43:41;102298.63;;;11.01;100.00
64095;BME280;50353;51.420;5.682;2023-09-30T02:46:06;102297.88;;;10.97;100.00
64095;BME280;50353;51.420;5.682;2023-09-30T02:48:33;102302.47;;;11.16;100.00
64095;BME280;50353;51.420;5.682;2023-09-30T02:50:58;102295.00;;;11.26;100.00
64095;BME280;50353;51.420;5.682;2023-09-30T02:53:23;102284.78;;;11.16;100.00
64095;BME280;50353;51.420;5.682;2023-09-30T02:55:49;102288.03;;;11.25;100.00
64095;BME280;50353;51.420;5.682;2023-09-30T02:58:17;102287.34;;;10.96;100.00
64095;BME280;50353;51.420;5.682;2023-09-30T03:00:48;102276.72;;;10.74;100.00
64095;BME280;50353;51.420;5.682;2023-09-30T03:03:14;102284.38;;;10.81;100.00
64095;BME280;50353;51.420;5.682;2023-09-30T03:05:39;102277.50;;;10.77;100.00
64095;BME280;50353;51.420;5.682;2023-09-30T03:08:05;102281.44;;;10.65;100.00
64095;BME280;50353;51.420;5.682;2023-09-30T03:10:30;102295.66;;;10.87;100.00
64095;BME280;50353;51.420;5.682;2023-09-30T03:12:56;102286.31;;;11.00;100.00
64095;BME280;50353;51.420;5.682;2023-09-30T03:15:28;102288.84;;;11.03;100.00
64095;BME280;50353;51.420;5.682;2023-09-30T03:17:56;102286.22;;;11.03;100.00
64095;BME280;50353;51.420;5.682;2023-09-30T03:20:21;102283.66;;;11.00;100.00
64095;BME280;50353;51.420;5.682;2023-09-30T03:22:47;102285.75;;;10.92;100.00
64095;BME280;50353;51.420;5.682;2023-09-30T03:25:14;102286.34;;;10.76;100.00
64095;BME280;50353;51.420;5.682;2023-09-30T03:27:41;102289.56;;;10.61;100.00
64095;BME280;50353;51.420;5.682;2023-09-30T03:30:07;102287.38;;;10.72;100.00
64095;BME280;50353;51.420;5.682;2023-09-30T03:32:34;102287.25;;;10.75;100.00
64095;BME280;50353;51.420;5.682;2023-09-30T03:35:01;102278.47;;;10.75;100.00
64095;BME280;50353;51.420;5.682;2023-09-30T03:37:27;102268.16;;;10.67;100.00
64095;BME280;50353;51.420;5.682;2023-09-30T03:39:56;102266.81;;;10.57;100.00
64095;BME280;50353;51.420;5.682;2023-09-30T03:42:21;102265.13;;;10.54;100.00
64095;BME280;50353;51.420;5.682;2023-09-30T03:44:47;102262.41;;;10.56;100.00
64095;BME280;50353;51.420;5.682;2023-09-30T03:47:14;102259.88;;;10.76;100.00
64095;BME280;50353;51.420;5.682;2023-09-30T03:49:40;102257.03;;;10.82;100.00
64095;BME280;50353;51.420;5.682;2023-09-30T03:52:05;102264.56;;;10.92;100.00
64095;BME280;50353;51.420;5.682;2023-09-30T03:54:31;102269.59;;;10.52;100.00
64095;BME280;50353;51.420;5.682;2023-09-30T03:56:56;102268.47;;;10.34;100.00
64095;BME280;50353;51.420;5.682;2023-09-30T03:59:21;102268.97;;;10.45;100.00
64095;BME280;50353;51.420;5.682;2023-09-30T04:01:47;102274.88;;;10.52;100.00
64095;BME280;50353;51.420;5.682;2023-09-30T04:04:12;102276.59;;;10.77;100.00
64095;BME280;50353;51.420;5.682;2023-09-30T04:06:38;102277.31;;;10.58;100.00
64095;BME280;50353;51.420;5.682;2023-09-30T04:09:06;102278.28;;;10.56;100.00
64095;BME280;50353;51.420;5.682;2023-09-30T04:11:38;102273.22;;;10.49;100.00
64095;BME280;50353;51.420;5.682;2023-09-30T04:14:05;102272.75;;;10.62;100.00
64095;BME280;50353;51.420;5.682;2023-09-30T04:16:31;102277.53;;;10.52;100.00
64095;BME280;50353;51.420;5.682;2023-09-30T04:18:56;102282.59;;;10.33;100.00
64095;BME280;50353;51.420;5.682;2023-09-30T04:21:21;102283.44;;;10.35;100.00
64095;BME280;50353;51.420;5.682;2023-09-30T04:23:47;102277.53;;;10.27;100.00
64095;BME280;50353;51.420;5.682;2023-09-30T04:26:12;102282.53;;;10.36;100.00
64095;BME280;50353;51.420;5.682;2023-09-30T04:28:38;102277.97;;;10.40;100.00
64095;BME280;50353;51.420;5.682;2023-09-30T04:31:03;102268.16;;;10.43;100.00
64095;BME280;50353;51.420;5.682;2023-09-30T04:33:29;102260.41;;;10.62;100.00
64095;BME280;50353;51.420;5.682;2023-09-30T04:35:54;102262.31;;;10.82;100.00
64095;BME280;50353;51.420;5.682;2023-09-30T04:38:19;102270.22;;;10.59;100.00
64095;BME280;50353;51.420;5.682;2023-09-30T04:40:45;102274.38;;;10.42;100.00
64095;BME280;50353;51.420;5.682;2023-09-30T04:43:13;102271.09;;;10.34;100.00
64095;BME280;50353;51.420;5.682;2023-09-30T04:45:39;102283.91;;;10.21;100.00
64095;BME280;50353;51.420;5.682;2023-09-30T04:48:05;102277.25;;;10.36;100.00
64095;BME280;50353;51.420;5.682;2023-09-30T04:50:30;102283.56;;;10.30;100.00
64095;BME280;50353;51.420;5.682;2023-09-30T04:52:56;102281.03;;;10.27;100.00
64095;BME280;50353;51.420;5.682;2023-09-30T04:55:23;102275.38;;;10.63;100.00
64095;BME280;50353;51.420;5.682;2023-09-30T04:57:48;102281.91;;;10.53;100.00
64095;BME280;50353;51.420;5.682;2023-09-30T05:00:15;102281.38;;;10.43;100.00
64095;BME280;50353;51.420;5.682;2023-09-30T05:02:42;102278.44;;;10.26;100.00
64095;BME280;50353;51.420;5.682;2023-09-30T05:05:10;102289.13;;;10.23;100.00
64095;BME280;50353;51.420;5.682;2023-09-30T05:07:35;102295.63;;;10.39;100.00
64095;BME280;50353;51.420;5.682;2023-09-30T05:10:01;102302.53;;;10.43;100.00
64095;BME280;50353;51.420;5.682;2023-09-30T05:12:30;102297.59;;;10.58;100.00
64095;BME280;50353;51.420;5.682;2023-09-30T05:14:55;102299.50;;;10.54;100.00
64095;BME280;50353;51.420;5.682;2023-09-30T05:17:20;102292.53;;;10.75;100.00
64095;BME280;50353;51.420;5.682;2023-09-30T05:19:45;102296.97;;;10.75;100.00
64095;BME280;50353;51.420;5.682;2023-09-30T05:22:11;102301.56;;;10.46;100.00
64095;BME280;50353;51.420;5.682;2023-09-30T05:24:37;102301.72;;;10.41;100.00
64095;BME280;50353;51.420;5.682;2023-09-30T05:27:02;102308.84;;;10.39;100.00
64095;BME280;50353;51.420;5.682;2023-09-30T05:29:28;102308.03;;;10.37;100.00
64095;BME280;50353;51.420;5.682;2023-09-30T05:31:54;102308.47;;;10.50;100.00
64095;BME280;50353;51.420;5.682;2023-09-30T05:34:19;102313.59;;;10.28;100.00
64095;BME280;50353;51.420;5.682;2023-09-30T05:36:44;102309.88;;;10.35;100.00
64095;BME280;50353;51.420;5.682;2023-09-30T05:39:10;102310.94;;;10.28;100.00
64095;BME280;50353;51.420;5.682;2023-09-30T05:41:35;102320.91;;;10.46;100.00
64095;BME280;50353;51.420;5.682;2023-09-30T05:44:02;102316.47;;;10.48;100.00
64095;BME280;50353;51.420;5.682;2023-09-30T05:46:28;102320.44;;;10.35;100.00
64095;BME280;50353;51.420;5.682;2023-09-30T05:48:53;102321.50;;;10.29;100.00
64095;BME280;50353;51.420;5.682;2023-09-30T05:51:18;102314.41;;;10.30;100.00
64095;BME280;50353;51.420;5.682;2023-09-30T05:53:44;102307.53;;;10.26;100.00
64095;BME280;50353;51.420;5.682;2023-09-30T05:56:09;102317.00;;;10.31;100.00
64095;BME280;50353;51.420;5.682;2023-09-30T05:58:36;102313.72;;;10.25;100.00
64095;BME280;50353;51.420;5.682;2023-09-30T06:01:07;102322.59;;;10.22;100.00
64095;BME280;50353;51.420;5.682;2023-09-30T06:03:32;102319.22;;;10.19;100.00
64095;BME280;50353;51.420;5.682;2023-09-30T06:05:58;102321.88;;;10.19;100.00
64095;BME280;50353;51.420;5.682;2023-09-30T06:08:25;102330.59;;;10.47;100.00
64095;BME280;50353;51.420;5.682;2023-09-30T06:10:50;102333.34;;;10.44;100.00
64095;BME280;50353;51.420;5.682;2023-09-30T06:13:15;102333.56;;;10.62;100.00
64095;BME280;50353;51.420;5.682;2023-09-30T06:15:42;102336.41;;;10.57;100.00
64095;BME280;50353;51.420;5.682;2023-09-30T06:18:09;102331.00;;;10.60;100.00
64095;BME280;50353;51.420;5.682;2023-09-30T06:20:35;102339.25;;;10.51;100.00
64095;BME280;50353;51.420;5.682;2023-09-30T06:23:01;102337.03;;;10.64;100.00
64095;BME280;50353;51.420;5.682;2023-09-30T06:25:26;102339.63;;;10.89;100.00
64095;BME280;50353;51.420;5.682;2023-09-30T06:27:53;102332.38;;;10.94;100.00
64095;BME280;50353;51.420;5.682;2023-09-30T06:30:19;102335.38;;;10.85;100.00
64095;BME280;50353;51.420;5.682;2023-09-30T06:32:46;102337.16;;;10.85;100.00
64095;BME280;50353;51.420;5.682;2023-09-30T06:35:12;102331.03;;;10.84;100.00
64095;BME280;50353;51.420;5.682;2023-09-30T06:37:38;102328.25;;;10.87;100.00
64095;BME280;50353;51.420;5.682;2023-09-30T06:40:08;102335.78;;;10.98;100.00
64095;BME280;50353;51.420;5.682;2023-09-30T06:42:34;102339.16;;;11.25;100.00
64095;BME280;50353;51.420;5.682;2023-09-30T06:45:00;102337.13;;;11.32;100.00
64095;BME280;50353;51.420;5.682;2023-09-30T06:47:26;102338.31;;;11.47;100.00
64095;BME280;50353;51.420;5.682;2023-09-30T06:49:52;102328.09;;;11.60;100.00
64095;BME280;50353;51.420;5.682;2023-09-30T06:52:17;102329.56;;;11.67;100.00
64095;BME280;50353;51.420;5.682;2023-09-30T06:54:42;102324.00;;;11.73;100.00
64095;BME280;50353;51.420;5.682;2023-09-30T06:57:07;102330.66;;;11.83;100.00
64095;BME280;50353;51.420;5.682;2023-09-30T06:59:34;102335.22;;;12.02;100.00
64095;BME280;50353;51.420;5.682;2023-09-30T07:02:00;102348.81;;;12.15;100.00
64095;BME280;50353;51.420;5.682;2023-09-30T07:04:25;102350.59;;;12.14;100.00
64095;BME280;50353;51.420;5.682;2023-09-30T07:06:52;102359.69;;;12.29;100.00
64095;BME280;50353;51.420;5.682;2023-09-30T07:09:17;102369.16;;;12.35;100.00
64095;BME280;50353;51.420;5.682;2023-09-30T07:11:45;102375.00;;;12.43;100.00
64095;BME280;50353;51.420;5.682;2023-09-30T07:14:10;102381.84;;;12.49;100.00
64095;BME280;50353;51.420;5.682;2023-09-30T07:16:35;102382.44;;;12.56;100.00
64095;BME280;50353;51.420;5.682;2023-09-30T07:19:01;102378.72;;;12.60;100.00
64095;BME280;50353;51.420;5.682;2023-09-30T07:21:26;102375.72;;;12.67;100.00
64095;BME280;50353;51.420;5.682;2023-09-30T07:23:51;102380.53;;;12.78;100.00
64095;BME280;50353;51.420;5.682;2023-09-30T07:26:17;102378.63;;;12.82;100.00
64095;BME280;50353;51.420;5.682;2023-09-30T07:28:42;102375.47;;;12.93;100.00
64095;BME280;50353;51.420;5.682;2023-09-30T07:31:07;102381.06;;;13.06;100.00
64095;BME280;50353;51.420;5.682;2023-09-30T07:33:33;102388.19;;;13.05;100.00
64095;BME280;50353;51.420;5.682;2023-09-30T07:35:58;102400.59;;;13.05;100.00
64095;BME280;50353;51.420;5.682;2023-09-30T07:38:23;102410.44;;;13.22;100.00
64095;BME280;50353;51.420;5.682;2023-09-30T07:40:48;102419.84;;;13.29;100.00
64095;BME280;50353;51.420;5.682;2023-09-30T07:43:14;102423.84;;;13.39;100.00
64095;BME280;50353;51.420;5.682;2023-09-30T07:45:39;102428.81;;;13.26;100.00
64095;BME280;50353;51.420;5.682;2023-09-30T07:48:07;102432.94;;;13.33;100.00
64095;BME280;50353;51.420;5.682;2023-09-30T07:50:34;102432.25;;;13.49;100.00
64095;BME280;50353;51.420;5.682;2023-09-30T07:53:00;102430.16;;;13.56;100.00
64095;BME280;50353;51.420;5.682;2023-09-30T07:55:25;102428.00;;;13.64;100.00
64095;BME280;50353;51.420;5.682;2023-09-30T07:57:51;102424.63;;;13.60;100.00
64095;BME280;50353;51.420;5.682;2023-09-30T08:00:17;102419.44;;;13.76;100.00
64095;BME280;50353;51.420;5.682;2023-09-30T08:02:42;102415.84;;;13.77;100.00
64095;BME280;50353;51.420;5.682;2023-09-30T08:05:08;102408.84;;;13.94;100.00
64095;BME280;50353;51.420;5.682;2023-09-30T08:07:34;102411.59;;;13.92;100.00
64095;BME280;50353;51.420;5.682;2023-09-30T08:09:59;102409.16;;;14.05;100.00
64095;BME280;50353;51.420;5.682;2023-09-30T08:12:25;102420.50;;;14.09;100.00
64095;BME280;50353;51.420;5.682;2023-09-30T08:14:50;102423.97;;;14.46;100.00
64095;BME280;50353;51.420;5.682;2023-09-30T08:17:17;102409.41;;;14.53;100.00
64095;BME280;50353;51.420;5.682;2023-09-30T08:19:43;102411.38;;;14.49;100.00
64095;BME280;50353;51.420;5.682;2023-09-30T08:22:08;102408.22;;;14.59;100.00
64095;BME280;50353;51.420;5.682;2023-09-30T08:24:34;102413.88;;;15.03;100.00
64095;BME280;50353;51.420;5.682;2023-09-30T08:27:00;102400.47;;;15.05;100.00
64095;BME280;50353;51.420;5.682;2023-09-30T08:29:25;102403.78;;;15.26;100.00
64095;BME280;50353;51.420;5.682;2023-09-30T08:31:51;102411.03;;;15.40;100.00
64095;BME280;50353;51.420;5.682;2023-09-30T08:34:16;102408.78;;;15.48;100.00
64095;BME280;50353;51.420;5.682;2023-09-30T08:36:43;102401.59;;;15.50;100.00
64095;BME280;50353;51.420;5.682;2023-09-30T08:39:08;102405.53;;;15.91;100.00
64095;BME280;50353;51.420;5.682;2023-09-30T08:41:35;102404.34;;;15.81;100.00
64095;BME280;50353;51.420;5.682;2023-09-30T08:44:01;102400.88;;;15.95;100.00
64095;BME280;50353;51.420;5.682;2023-09-30T08:46:32;102398.50;;;16.04;100.00
64095;BME280;50353;51.420;5.682;2023-09-30T08:49:00;102405.47;;;16.07;100.00
64095;BME280;50353;51.420;5.682;2023-09-30T08:51:28;102398.19;;;16.25;100.00
64095;BME280;50353;51.420;5.682;2023-09-30T08:53:53;102402.09;;;16.19;100.00
64095;BME280;50353;51.420;5.682;2023-09-30T08:56:24;102398.84;;;16.45;100.00
64095;BME280;50353;51.420;5.682;2023-09-30T08:58:51;102382.63;;;16.48;100.00
64095;BME280;50353;51.420;5.682;2023-09-30T09:01:17;102382.06;;;16.57;100.00
64095;BME280;50353;51.420;5.682;2023-09-30T09:03:43;102378.38;;;16.88;98.83
64095;BME280;50353;51.420;5.682;2023-09-30T09:06:08;102382.25;;;16.68;99.33
64095;BME280;50353;51.420;5.682;2023-09-30T09:08:33;102388.66;;;16.80;99.11
64095;BME280;50353;51.420;5.682;2023-09-30T09:11:00;102384.00;;;16.84;97.87
64095;BME280;50353;51.420;5.682;2023-09-30T09:13:26;102389.09;;;17.03;96.05
64095;BME280;50353;51.420;5.682;2023-09-30T09:16:08;102401.47;;;17.04;95.68
64095;BME280;50353;51.420;5.682;2023-09-30T09:18:34;102405.25;;;17.29;94.66
64095;BME280;50353;51.420;5.682;2023-09-30T09:21:11;102412.31;;;17.30;96.09
64095;BME280;50353;51.420;5.682;2023-09-30T09:23:46;102421.72;;;17.64;91.77
64095;BME280;50353;51.420;5.682;2023-09-30T09:26:23;102418.78;;;18.09;91.68
64095;BME280;50353;51.420;5.682;2023-09-30T09:28:49;102420.97;;;17.89;93.72
64095;BME280;50353;51.420;5.682;2023-09-30T09:31:21;102425.75;;;17.99;94.92
64095;BME280;50353;51.420;5.682;2023-09-30T09:33:48;102430.34;;;18.37;90.24
64095;BME280;50353;51.420;5.682;2023-09-30T09:36:14;102438.38;;;18.37;89.13
64095;BME280;50353;51.420;5.682;2023-09-30T09:38:50;102450.22;;;17.93;90.71
64095;BME280;50353;51.420;5.682;2023-09-30T09:41:19;102449.81;;;17.99;88.82
64095;BME280;50353;51.420;5.682;2023-09-30T09:43:45;102449.97;;;18.10;86.63
64095;BME280;50353;51.420;5.682;2023-09-30T09:46:13;102450.38;;;17.89;88.37
64095;BME280;50353;51.420;5.682;2023-09-30T09:48:39;102453.88;;;18.32;85.50
64095;BME280;50353;51.420;5.682;2023-09-30T09:51:04;102452.16;;;18.31;85.89
64095;BME280;50353;51.420;5.682;2023-09-30T09:53:34;102459.47;;;18.41;84.86
64095;BME280;50353;51.420;5.682;2023-09-30T09:56:02;102449.91;;;18.24;85.25
64095;BME280;50353;51.420;5.682;2023-09-30T09:58:32;102454.22;;;18.00;85.32
64095;BME280;50353;51.420;5.682;2023-09-30T10:01:00;102452.16;;;17.76;83.33
64095;BME280;50353;51.420;5.682;2023-09-30T10:03:26;102446.94;;;18.02;86.23
64095;BME280;50353;51.420;5.682;2023-09-30T10:05:51;102451.00;;;17.95;84.67
64095;BME280;50353;51.420;5.682;2023-09-30T10:08:20;102452.88;;;18.20;83.09
64095;BME280;50353;51.420;5.682;2023-09-30T10:10:47;102444.75;;;17.94;84.69
64095;BME280;50353;51.420;5.682;2023-09-30T10:24:56;102458.06;;;18.36;81.88
64095;BME280;50353;51.420;5.682;2023-09-30T10:29:47;102461.84;;;18.46;82.07
64095;BME280;50353;51.420;5.682;2023-09-30T10:32:13;102462.38;;;18.51;79.32
64095;BME280;50353;51.420;5.682;2023-09-30T10:34:46;102454.78;;;18.45;81.36
64095;BME280;50353;51.420;5.682;2023-09-30T10:37:21;102450.13;;;19.13;77.07
64095;BME280;50353;51.420;5.682;2023-09-30T10:39:54;102448.69;;;18.82;79.26
64095;BME280;50353;51.420;5.682;2023-09-30T10:45:42;102432.72;;;19.06;75.80
64095;BME280;50353;51.420;5.682;2023-09-30T10:51:15;102437.25;;;18.92;74.77
64095;BME280;50353;51.420;5.682;2023-09-30T10:53:42;102432.72;;;19.06;73.02
64095;BME280;50353;51.420;5.682;2023-09-30T10:56:08;102427.38;;;18.80;75.57
64095;BME280;50353;51.420;5.682;2023-09-30T10:58:43;102422.72;;;19.34;72.94
64095;BME280;50353;51.420;5.682;2023-09-30T11:01:09;102421.22;;;19.30;69.01
64095;BME280;50353;51.420;5.682;2023-09-30T11:03:35;102425.06;;;19.38;71.13
64095;BME280;50353;51.420;5.682;2023-09-30T11:06:02;102419.50;;;19.29;72.80
64095;BME280;50353;51.420;5.682;2023-09-30T11:08:29;102415.22;;;19.63;71.54
64095;BME280;50353;51.420;5.682;2023-09-30T11:10:55;102410.00;;;19.86;68.71
64095;BME280;50353;51.420;5.682;2023-09-30T11:13:22;102420.03;;;19.84;69.75
64095;BME280;50353;51.420;5.682;2023-09-30T11:15:47;102412.03;;;20.06;71.46
64095;BME280;50353;51.420;5.682;2023-09-30T11:18:17;102401.03;;;20.34;69.97
64095;BME280;50353;51.420;5.682;2023-09-30T11:20:43;102404.13;;;20.05;65.53
64095;BME280;50353;51.420;5.682;2023-09-30T11:23:10;102397.63;;;20.43;66.87
64095;BME280;50353;51.420;5.682;2023-09-30T11:25:36;102408.72;;;19.79;66.29
64095;BME280;50353;51.420;5.682;2023-09-30T11:28:17;102410.56;;;19.41;67.73
64095;BME280;50353;51.420;5.682;2023-09-30T11:30:58;102410.66;;;19.89;64.32
64095;BME280;50353;51.420;5.682;2023-09-30T11:33:24;102404.91;;;20.30;62.71
64095;BME280;50353;51.420;5.682;2023-09-30T11:36:03;102399.88;;;20.60;64.28
64095;BME280;50353;51.420;5.682;2023-09-30T11:38:31;102392.88;;;20.47;65.65
64095;BME280;50353;51.420;5.682;2023-09-30T11:41:05;102398.16;;;20.59;58.91
64095;BME280;50353;51.420;5.682;2023-09-30T11:43:33;102407.16;;;20.36;59.58
64095;BME280;50353;51.420;5.682;2023-09-30T11:46:06;102394.34;;;20.51;59.42
64095;BME280;50353;51.420;5.682;2023-09-30T11:48:34;102401.97;;;20.21;56.76
64095;BME280;50353;51.420;5.682;2023-09-30T11:51:00;102392.25;;;20.43;57.07
64095;BME280;50353;51.420;5.682;2023-09-30T11:53:28;102380.50;;;20.33;56.51
64095;BME280;50353;51.420;5.682;2023-09-30T11:55:55;102378.38;;;20.14;59.07
64095;BME280;50353;51.420;5.682;2023-09-30T11:58:21;102377.81;;;20.33;59.42
64095;BME280;50353;51.420;5.682;2023-09-30T12:00:47;102372.75;;;20.52;55.94
64095;BME280;50353;51.420;5.682;2023-09-30T12:03:15;102378.72;;;20.44;54.99
64095;BME280;50353;51.420;5.682;2023-09-30T12:05:41;102383.69;;;20.38;58.26
64095;BME280;50353;51.420;5.682;2023-09-30T12:08:06;102390.97;;;20.24;60.04
64095;BME280;50353;51.420;5.682;2023-09-30T12:10:32;102378.84;;;20.54;58.87
64095;BME280;50353;51.420;5.682;2023-09-30T12:12:57;102379.84;;;20.65;57.82
64095;BME280;50353;51.420;5.682;2023-09-30T12:15:22;102378.38;;;20.60;58.44
64095;BME280;50353;51.420;5.682;2023-09-30T12:17:47;102388.28;;;20.13;61.11
64095;BME280;50353;51.420;5.682;2023-09-30T12:20:13;102381.38;;;20.33;63.08
64095;BME280;50353;51.420;5.682;2023-09-30T12:22:40;102388.94;;;20.39;65.10
64095;BME280;50353;51.420;5.682;2023-09-30T12:25:06;102387.22;;;20.27;59.79
64095;BME280;50353;51.420;5.682;2023-09-30T12:27:33;102378.75;;;20.09;60.54
64095;BME280;50353;51.420;5.682;2023-09-30T12:29:58;102376.97;;;20.21;59.68
64095;BME280;50353;51.420;5.682;2023-09-30T12:32:25;102377.09;;;20.31;59.19
64095;BME280;50353;51.420;5.682;2023-09-30T12:34:52;102373.75;;;20.04;61.17
64095;BME280;50353;51.420;5.682;2023-09-30T12:37:17;102371.19;;;20.03;60.73
64095;BME280;50353;51.420;5.682;2023-09-30T12:39:43;102368.59;;;20.01;60.93
64095;BME280;50353;51.420;5.682;2023-09-30T12:42:10;102352.56;;;19.88;62.46
64095;BME280;50353;51.420;5.682;2023-09-30T12:44:37;102358.47;;;20.05;61.98
64095;BME280;50353;51.420;5.682;2023-09-30T12:47:03;102346.28;;;20.12;61.21
64095;BME280;50353;51.420;5.682;2023-09-30T12:49:30;102341.53;;;20.16;62.13
64095;BME280;50353;51.420;5.682;2023-09-30T12:51:55;102342.75;;;20.12;59.81
64095;BME280;50353;51.420;5.682;2023-09-30T12:54:22;102335.34;;;20.38;62.92
64095;BME280;50353;51.420;5.682;2023-09-30T12:56:48;102337.19;;;20.37;60.36
64095;BME280;50353;51.420;5.682;2023-09-30T12:59:15;102336.44;;;20.35;58.26